sensor_id;sensor_type;location;lat;lon;timestamp;temperature;humidity
9760;DHT22;4919;48.792;9.202;2022-09-25T00:00:46;12.60;99.90
9760;DHT22;4919;48.792;9.202;2022-09-25T00:03:14;12.60;99.90
9760;DHT22;4919;48.792;9.202;2022-09-25T00:05:43;12.60;99.90
9760;DHT22;4919;48.792;9.202;2022-09-25T00:08:12;12.60;99.90
9760;DHT22;4919;48.792;9.202;2022-09-25T00:10:44;12.70;99.90
9760;DHT22;4919;48.792;9.202;2022-09-25T00:13:11;12.60;99.90
9760;DHT22;4919;48.792;9.202;2022-09-25T00:15:48;12.60;99.90
9760;DHT22;4919;48.792;9.202;2022-09-25T00:18:16;12.60;99.90
9760;DHT22;4919;48.792;9.202;2022-09-25T00:21:04;12.60;99.90
9760;DHT22;4919;48.792;9.202;2022-09-25T00:23:31;12.60;99.90
9760;DHT22;4919;48.792;9.202;2022-09-25T00:26:00;12.60;99.90
9760;DHT22;4919;48.792;9.202;2022-09-25T00:28:27;12.60;99.90
9760;DHT22;4919;48.792;9.202;2022-09-25T00:30:57;12.60;99.90
9760;DHT22;4919;48.792;9.202;2022-09-25T00:33:25;12.70;99.90
9760;DHT22;4919;48.792;9.202;2022-09-25T00:35:51;12.60;99.90
9760;DHT22;4919;48.792;9.202;2022-09-25T00:38:18;12.60;99.90
9760;DHT22;4919;48.792;9.202;2022-09-25T00:40:45;12.60;99.90
9760;DHT22;4919;48.792;9.202;2022-09-25T00:46:00;12.60;99.90
9760;DHT22;4919;48.792;9.202;2022-09-25T00:48:29;12.60;99.90
9760;DHT22;4919;48.792;9.202;2022-09-25T00:50:57;12.60;99.90
9760;DHT22;4919;48.792;9.202;2022-09-25T00:53:34;12.60;99.90
9760;DHT22;4919;48.792;9.202;2022-09-25T00:56:03;12.60;99.90
9760;DHT22;4919;48.792;9.202;2022-09-25T00:58:32;12.60;99.90
9760;DHT22;4919;48.792;9.202;2022-09-25T01:01:01;12.50;99.90
9760;DHT22;4919;48.792;9.202;2022-09-25T01:03:28;12.50;99.90
9760;DHT22;4919;48.792;9.202;2022-09-25T01:05:55;12.50;99.90
9760;DHT22;4919;48.792;9.202;2022-09-25T01:08:24;12.50;99.90
9760;DHT22;4919;48.792;9.202;2022-09-25T01:10:53;12.50;99.90
9760;DHT22;4919;48.792;9.202;2022-09-25T01:13:20;12.50;99.90
9760;DHT22;4919;48.792;9.202;2022-09-25T01:21:33;12.50;99.90
9760;DHT22;4919;48.792;9.202;2022-09-25T01:29:56;12.40;99.90
9760;DHT22;4919;48.792;9.202;2022-09-25T01:32:55;12.40;99.90
9760;DHT22;4919;48.792;9.202;2022-09-25T01:35:35;12.30;99.90
9760;DHT22;4919;48.792;9.202;2022-09-25T01:38:15;12.30;99.90
9760;DHT22;4919;48.792;9.202;2022-09-25T01:41:03;12.30;99.90
9760;DHT22;4919;48.792;9.202;2022-09-25T01:43:58;12.40;99.90
9760;DHT22;4919;48.792;9.202;2022-09-25T01:46:33;12.30;99.90
9760;DHT22;4919;48.792;9.202;2022-09-25T01:49:12;12.30;99.90
9760;DHT22;4919;48.792;9.202;2022-09-25T01:51:51;12.20;99.90
9760;DHT22;4919;48.792;9.202;2022-09-25T01:54:26;12.30;99.90
9760;DHT22;4919;48.792;9.202;2022-09-25T01:56:58;12.30;99.90
9760;DHT22;4919;48.792;9.202;2022-09-25T01:59:46;12.20;99.90
9760;DHT22;4919;48.792;9.202;2022-09-25T02:02:20;12.20;99.90
9760;DHT22;4919;48.792;9.202;2022-09-25T02:05:01;12.20;99.90
9760;DHT22;4919;48.792;9.202;2022-09-25T02:07:34;12.20;99.90
9760;DHT22;4919;48.792;9.202;2022-09-25T02:10:07;12.20;99.90
9760;DHT22;4919;48.792;9.202;2022-09-25T02:12:45;12.10;99.90
9760;DHT22;4919;48.792;9.202;2022-09-25T02:15:27;12.10;99.90
9760;DHT22;4919;48.792;9.202;2022-09-25T02:18:00;12.10;99.90
9760;DHT22;4919;48.792;9.202;2022-09-25T02:20:52;12.10;99.90
9760;DHT22;4919;48.792;9.202;2022-09-25T02:23:48;12.10;99.90
9760;DHT22;4919;48.792;9.202;2022-09-25T02:26:34;12.10;99.90
9760;DHT22;4919;48.792;9.202;2022-09-25T02:29:01;12.00;99.90
9760;DHT22;4919;48.792;9.202;2022-09-25T02:31:33;12.00;99.90
9760;DHT22;4919;48.792;9.202;2022-09-25T02:34:02;12.00;99.90
9760;DHT22;4919;48.792;9.202;2022-09-25T02:36:30;11.90;99.90
9760;DHT22;4919;48.792;9.202;2022-09-25T02:38:58;12.00;99.90
9760;DHT22;4919;48.792;9.202;2022-09-25T02:52:18;11.90;99.90
9760;DHT22;4919;48.792;9.202;2022-09-25T02:54:52;11.90;99.90
9760;DHT22;4919;48.792;9.202;2022-09-25T02:57:34;11.80;99.90
9760;DHT22;4919;48.792;9.202;2022-09-25T03:00:05;11.80;99.90
9760;DHT22;4919;48.792;9.202;2022-09-25T03:02:34;11.80;99.90
9760;DHT22;4919;48.792;9.202;2022-09-25T03:05:04;11.80;99.90
9760;DHT22;4919;48.792;9.202;2022-09-25T03:07:31;11.70;99.90
9760;DHT22;4919;48.792;9.202;2022-09-25T03:10:19;11.70;99.90
9760;DHT22;4919;48.792;9.202;2022-09-25T03:12:46;11.70;99.90
9760;DHT22;4919;48.792;9.202;2022-09-25T03:15:13;11.70;99.90
9760;DHT22;4919;48.792;9.202;2022-09-25T03:17:40;11.70;99.90
9760;DHT22;4919;48.792;9.202;2022-09-25T03:20:07;11.70;99.90
9760;DHT22;4919;48.792;9.202;2022-09-25T03:22:35;11.70;99.90
9760;DHT22;4919;48.792;9.202;2022-09-25T03:25:04;11.70;99.90
9760;DHT22;4919;48.792;9.202;2022-09-25T03:27:31;11.70;99.90
9760;DHT22;4919;48.792;9.202;2022-09-25T03:29:57;11.70;99.90
9760;DHT22;4919;48.792;9.202;2022-09-25T03:32:24;11.70;99.90
9760;DHT22;4919;48.792;9.202;2022-09-25T03:34:51;11.70;99.90
9760;DHT22;4919;48.792;9.202;2022-09-25T03:37:18;11.70;99.90
9760;DHT22;4919;48.792;9.202;2022-09-25T03:39:45;11.70;99.90
9760;DHT22;4919;48.792;9.202;2022-09-25T03:42:11;11.70;99.90
9760;DHT22;4919;48.792;9.202;2022-09-25T03:44:39;11.70;99.90
9760;DHT22;4919;48.792;9.202;2022-09-25T03:47:06;11.70;99.90
9760;DHT22;4919;48.792;9.202;2022-09-25T03:49:33;11.70;99.90
9760;DHT22;4919;48.792;9.202;2022-09-25T03:52:00;11.70;99.90
9760;DHT22;4919;48.792;9.202;2022-09-25T03:54:26;11.70;99.90
9760;DHT22;4919;48.792;9.202;2022-09-25T03:56:53;11.70;99.90
9760;DHT22;4919;48.792;9.202;2022-09-25T03:59:20;11.60;99.90
9760;DHT22;4919;48.792;9.202;2022-09-25T04:01:47;11.60;99.90
9760;DHT22;4919;48.792;9.202;2022-09-25T04:04:13;11.60;99.90
9760;DHT22;4919;48.792;9.202;2022-09-25T04:06:40;11.60;99.90
9760;DHT22;4919;48.792;9.202;2022-09-25T04:09:07;11.60;99.90
9760;DHT22;4919;48.792;9.202;2022-09-25T04:11:34;11.60;99.90
9760;DHT22;4919;48.792;9.202;2022-09-25T04:14:04;11.60;99.90
9760;DHT22;4919;48.792;9.202;2022-09-25T04:16:31;11.60;99.90
9760;DHT22;4919;48.792;9.202;2022-09-25T04:18:58;11.60;99.90
9760;DHT22;4919;48.792;9.202;2022-09-25T04:21:24;11.60;99.90
9760;DHT22;4919;48.792;9.202;2022-09-25T04:23:51;11.60;99.90
9760;DHT22;4919;48.792;9.202;2022-09-25T04:26:37;11.50;99.90
9760;DHT22;4919;48.792;9.202;2022-09-25T04:29:03;11.60;99.90
9760;DHT22;4919;48.792;9.202;2022-09-25T04:31:31;11.60;99.90
9760;DHT22;4919;48.792;9.202;2022-09-25T04:33:59;11.60;99.90
9760;DHT22;4919;48.792;9.202;2022-09-25T04:36:28;11.50;99.90
9760;DHT22;4919;48.792;9.202;2022-09-25T04:38:54;11.50;99.90
9760;DHT22;4919;48.792;9.202;2022-09-25T04:41:21;11.50;99.90
9760;DHT22;4919;48.792;9.202;2022-09-25T04:43:48;11.50;99.90
9760;DHT22;4919;48.792;9.202;2022-09-25T04:46:15;11.50;99.90
9760;DHT22;4919;48.792;9.202;2022-09-25T04:48:48;11.50;99.90
9760;DHT22;4919;48.792;9.202;2022-09-25T04:51:15;11.50;99.90
9760;DHT22;4919;48.792;9.202;2022-09-25T04:53:42;11.50;99.90
9760;DHT22;4919;48.792;9.202;2022-09-25T04:56:09;11.50;99.90
9760;DHT22;4919;48.792;9.202;2022-09-25T04:58:47;11.40;99.90
9760;DHT22;4919;48.792;9.202;2022-09-25T05:01:16;11.40;99.90
9760;DHT22;4919;48.792;9.202;2022-09-25T05:03:49;11.50;99.90
9760;DHT22;4919;48.792;9.202;2022-09-25T05:06:19;11.50;99.90
9760;DHT22;4919;48.792;9.202;2022-09-25T05:08:47;11.50;99.90
9760;DHT22;4919;48.792;9.202;2022-09-25T05:11:15;11.50;99.90
9760;DHT22;4919;48.792;9.202;2022-09-25T05:13:41;11.50;99.90
9760;DHT22;4919;48.792;9.202;2022-09-25T05:16:09;11.40;99.90
9760;DHT22;4919;48.792;9.202;2022-09-25T05:18:36;11.50;99.90
9760;DHT22;4919;48.792;9.202;2022-09-25T05:21:04;11.40;99.90
9760;DHT22;4919;48.792;9.202;2022-09-25T05:23:31;11.40;99.90
9760;DHT22;4919;48.792;9.202;2022-09-25T05:25:57;11.40;99.90
9760;DHT22;4919;48.792;9.202;2022-09-25T05:28:29;11.30;99.90
9760;DHT22;4919;48.792;9.202;2022-09-25T05:31:00;11.30;99.90
9760;DHT22;4919;48.792;9.202;2022-09-25T05:33:31;11.40;99.90
9760;DHT22;4919;48.792;9.202;2022-09-25T05:36:03;11.40;99.90
9760;DHT22;4919;48.792;9.202;2022-09-25T05:38:31;11.40;99.90
9760;DHT22;4919;48.792;9.202;2022-09-25T05:41:09;11.40;99.90
9760;DHT22;4919;48.792;9.202;2022-09-25T05:43:40;11.40;99.90
9760;DHT22;4919;48.792;9.202;2022-09-25T05:46:09;11.40;99.90
9760;DHT22;4919;48.792;9.202;2022-09-25T05:48:37;11.50;99.90
9760;DHT22;4919;48.792;9.202;2022-09-25T05:51:04;11.50;99.90
9760;DHT22;4919;48.792;9.202;2022-09-25T05:53:31;11.50;99.90
9760;DHT22;4919;48.792;9.202;2022-09-25T05:56:00;11.50;99.90
9760;DHT22;4919;48.792;9.202;2022-09-25T05:58:28;11.60;99.90
9760;DHT22;4919;48.792;9.202;2022-09-25T06:01:03;11.60;99.90
9760;DHT22;4919;48.792;9.202;2022-09-25T06:03:30;11.60;99.90
9760;DHT22;4919;48.792;9.202;2022-09-25T06:05:58;11.70;99.90
9760;DHT22;4919;48.792;9.202;2022-09-25T06:08:26;11.70;99.90
9760;DHT22;4919;48.792;9.202;2022-09-25T06:10:53;11.70;99.90
9760;DHT22;4919;48.792;9.202;2022-09-25T06:13:21;11.80;99.90
9760;DHT22;4919;48.792;9.202;2022-09-25T06:15:49;11.80;99.90
9760;DHT22;4919;48.792;9.202;2022-09-25T06:18:20;11.90;99.90
9760;DHT22;4919;48.792;9.202;2022-09-25T06:20:47;12.00;99.90
9760;DHT22;4919;48.792;9.202;2022-09-25T06:23:15;12.10;99.90
9760;DHT22;4919;48.792;9.202;2022-09-25T06:25:42;12.20;99.90
9760;DHT22;4919;48.792;9.202;2022-09-25T06:28:09;12.20;99.90
9760;DHT22;4919;48.792;9.202;2022-09-25T06:30:38;12.30;99.90
9760;DHT22;4919;48.792;9.202;2022-09-25T06:33:12;12.30;99.90
9760;DHT22;4919;48.792;9.202;2022-09-25T06:35:43;12.40;99.90
9760;DHT22;4919;48.792;9.202;2022-09-25T06:38:10;12.40;99.90
9760;DHT22;4919;48.792;9.202;2022-09-25T06:40:38;12.40;99.90
9760;DHT22;4919;48.792;9.202;2022-09-25T06:43:12;12.40;99.90
9760;DHT22;4919;48.792;9.202;2022-09-25T06:45:40;12.50;99.90
9760;DHT22;4919;48.792;9.202;2022-09-25T06:48:12;12.50;99.90
9760;DHT22;4919;48.792;9.202;2022-09-25T06:50:47;12.60;99.90
9760;DHT22;4919;48.792;9.202;2022-09-25T06:53:15;12.60;99.90
9760;DHT22;4919;48.792;9.202;2022-09-25T06:55:42;12.60;99.90
9760;DHT22;4919;48.792;9.202;2022-09-25T06:58:15;12.60;99.90
9760;DHT22;4919;48.792;9.202;2022-09-25T07:00:46;12.60;99.90
9760;DHT22;4919;48.792;9.202;2022-09-25T07:03:13;12.60;99.90
9760;DHT22;4919;48.792;9.202;2022-09-25T07:05:59;12.60;99.90
9760;DHT22;4919;48.792;9.202;2022-09-25T07:08:26;12.60;99.90
9760;DHT22;4919;48.792;9.202;2022-09-25T07:10:55;12.60;99.90
9760;DHT22;4919;48.792;9.202;2022-09-25T07:13:27;12.60;99.90
9760;DHT22;4919;48.792;9.202;2022-09-25T07:15:57;12.60;99.90
9760;DHT22;4919;48.792;9.202;2022-09-25T07:18:25;12.60;99.90
9760;DHT22;4919;48.792;9.202;2022-09-25T07:20:53;12.60;99.90
9760;DHT22;4919;48.792;9.202;2022-09-25T07:23:24;12.60;99.90
9760;DHT22;4919;48.792;9.202;2022-09-25T07:25:51;12.60;99.90
9760;DHT22;4919;48.792;9.202;2022-09-25T07:28:18;12.60;99.90
9760;DHT22;4919;48.792;9.202;2022-09-25T07:30:46;12.70;99.90
9760;DHT22;4919;48.792;9.202;2022-09-25T07:33:14;12.70;99.90
9760;DHT22;4919;48.792;9.202;2022-09-25T07:35:42;12.70;99.90
9760;DHT22;4919;48.792;9.202;2022-09-25T07:38:08;12.70;99.90
9760;DHT22;4919;48.792;9.202;2022-09-25T07:40:35;12.70;99.90
9760;DHT22;4919;48.792;9.202;2022-09-25T07:43:06;12.70;99.90
9760;DHT22;4919;48.792;9.202;2022-09-25T07:45:33;12.90;99.90
9760;DHT22;4919;48.792;9.202;2022-09-25T07:48:00;12.90;99.90
9760;DHT22;4919;48.792;9.202;2022-09-25T07:50:29;13.00;99.90
9760;DHT22;4919;48.792;9.202;2022-09-25T07:52:57;13.10;99.90
9760;DHT22;4919;48.792;9.202;2022-09-25T07:55:24;13.20;99.90
9760;DHT22;4919;48.792;9.202;2022-09-25T07:57:56;13.20;99.90
9760;DHT22;4919;48.792;9.202;2022-09-25T08:00:23;13.30;99.90
9760;DHT22;4919;48.792;9.202;2022-09-25T08:02:57;13.40;99.90
9760;DHT22;4919;48.792;9.202;2022-09-25T08:05:25;13.40;99.90
9760;DHT22;4919;48.792;9.202;2022-09-25T08:07:53;13.50;99.90
9760;DHT22;4919;48.792;9.202;2022-09-25T08:10:20;13.50;99.90
9760;DHT22;4919;48.792;9.202;2022-09-25T08:12:47;13.60;99.90
9760;DHT22;4919;48.792;9.202;2022-09-25T08:15:15;13.70;99.90
9760;DHT22;4919;48.792;9.202;2022-09-25T08:17:42;13.70;99.90
9760;DHT22;4919;48.792;9.202;2022-09-25T08:20:09;13.90;99.90
9760;DHT22;4919;48.792;9.202;2022-09-25T08:22:37;13.90;99.90
9760;DHT22;4919;48.792;9.202;2022-09-25T08:25:04;14.10;99.90
9760;DHT22;4919;48.792;9.202;2022-09-25T08:27:31;14.20;99.90
9760;DHT22;4919;48.792;9.202;2022-09-25T08:29:58;14.50;99.90
9760;DHT22;4919;48.792;9.202;2022-09-25T08:32:24;14.60;99.90
9760;DHT22;4919;48.792;9.202;2022-09-25T08:34:51;14.60;99.90
9760;DHT22;4919;48.792;9.202;2022-09-25T08:37:19;14.60;99.90
9760;DHT22;4919;48.792;9.202;2022-09-25T08:39:46;14.60;99.90
9760;DHT22;4919;48.792;9.202;2022-09-25T08:42:24;14.70;99.90
9760;DHT22;4919;48.792;9.202;2022-09-25T08:44:58;14.90;99.90
9760;DHT22;4919;48.792;9.202;2022-09-25T08:47:52;14.60;99.90
9760;DHT22;4919;48.792;9.202;2022-09-25T08:50:39;14.70;99.90
9760;DHT22;4919;48.792;9.202;2022-09-25T08:53:22;14.70;99.90
9760;DHT22;4919;48.792;9.202;2022-09-25T08:55:50;14.80;99.90
9760;DHT22;4919;48.792;9.202;2022-09-25T08:58:38;14.80;99.90
9760;DHT22;4919;48.792;9.202;2022-09-25T09:01:15;14.60;99.90
9760;DHT22;4919;48.792;9.202;2022-09-25T09:04:04;14.80;99.90
9760;DHT22;4919;48.792;9.202;2022-09-25T09:06:33;14.80;99.90
9760;DHT22;4919;48.792;9.202;2022-09-25T09:09:21;14.80;99.90
9760;DHT22;4919;48.792;9.202;2022-09-25T09:11:55;15.00;99.90
9760;DHT22;4919;48.792;9.202;2022-09-25T09:14:26;14.80;99.90
9760;DHT22;4919;48.792;9.202;2022-09-25T09:17:09;14.90;99.90
9760;DHT22;4919;48.792;9.202;2022-09-25T09:19:37;14.90;99.90
9760;DHT22;4919;48.792;9.202;2022-09-25T09:22:12;15.10;99.90
9760;DHT22;4919;48.792;9.202;2022-09-25T09:35:53;15.40;99.90
9760;DHT22;4919;48.792;9.202;2022-09-25T09:38:34;15.50;99.90
9760;DHT22;4919;48.792;9.202;2022-09-25T09:49:56;16.10;99.90
9760;DHT22;4919;48.792;9.202;2022-09-25T09:52:28;16.00;99.90
9760;DHT22;4919;48.792;9.202;2022-09-25T09:55:13;16.00;99.90
9760;DHT22;4919;48.792;9.202;2022-09-25T09:57:49;16.10;99.90
9760;DHT22;4919;48.792;9.202;2022-09-25T10:00:19;16.40;99.90
9760;DHT22;4919;48.792;9.202;2022-09-25T10:02:51;16.80;99.90
9760;DHT22;4919;48.792;9.202;2022-09-25T10:05:31;16.70;99.90
9760;DHT22;4919;48.792;9.202;2022-09-25T10:07:58;17.20;99.90
9760;DHT22;4919;48.792;9.202;2022-09-25T10:10:46;17.20;99.90
9760;DHT22;4919;48.792;9.202;2022-09-25T10:13:30;17.30;99.90
9760;DHT22;4919;48.792;9.202;2022-09-25T10:18:37;17.00;99.90
9760;DHT22;4919;48.792;9.202;2022-09-25T10:21:16;17.00;99.90
9760;DHT22;4919;48.792;9.202;2022-09-25T10:23:52;17.00;99.90
9760;DHT22;4919;48.792;9.202;2022-09-25T10:26:37;17.10;99.90
9760;DHT22;4919;48.792;9.202;2022-09-25T10:29:25;16.90;99.90
9760;DHT22;4919;48.792;9.202;2022-09-25T10:32:01;16.90;99.90
9760;DHT22;4919;48.792;9.202;2022-09-25T10:34:30;16.90;99.90
9760;DHT22;4919;48.792;9.202;2022-09-25T10:36:57;17.10;99.90
9760;DHT22;4919;48.792;9.202;2022-09-25T10:39:36;17.10;99.90
9760;DHT22;4919;48.792;9.202;2022-09-25T10:42:33;17.20;99.90
9760;DHT22;4919;48.792;9.202;2022-09-25T10:45:35;17.30;99.90
9760;DHT22;4919;48.792;9.202;2022-09-25T10:48:27;17.30;99.90
9760;DHT22;4919;48.792;9.202;2022-09-25T10:51:15;17.20;99.90
9760;DHT22;4919;48.792;9.202;2022-09-25T10:53:45;17.10;99.90
9760;DHT22;4919;48.792;9.202;2022-09-25T10:56:31;17.00;99.90
9760;DHT22;4919;48.792;9.202;2022-09-25T10:59:02;17.20;99.90
9760;DHT22;4919;48.792;9.202;2022-09-25T11:01:38;17.20;99.90
9760;DHT22;4919;48.792;9.202;2022-09-25T11:04:15;17.00;99.90
9760;DHT22;4919;48.792;9.202;2022-09-25T11:06:48;17.00;99.90
9760;DHT22;4919;48.792;9.202;2022-09-25T11:09:29;16.90;99.90
9760;DHT22;4919;48.792;9.202;2022-09-25T11:12:20;17.00;99.90
9760;DHT22;4919;48.792;9.202;2022-09-25T11:15:03;17.10;99.90
9760;DHT22;4919;48.792;9.202;2022-09-25T11:17:42;17.20;99.90
9760;DHT22;4919;48.792;9.202;2022-09-25T11:31:26;17.30;99.90
9760;DHT22;4919;48.792;9.202;2022-09-25T11:37:01;17.30;99.90
9760;DHT22;4919;48.792;9.202;2022-09-25T11:39:37;17.30;99.90
9760;DHT22;4919;48.792;9.202;2022-09-25T11:42:32;17.30;99.90
9760;DHT22;4919;48.792;9.202;2022-09-25T11:45:03;17.20;99.90
9760;DHT22;4919;48.792;9.202;2022-09-25T11:50:15;17.40;99.90
9760;DHT22;4919;48.792;9.202;2022-09-25T11:53:18;17.60;99.90
9760;DHT22;4919;48.792;9.202;2022-09-25T11:56:05;17.80;99.90
9760;DHT22;4919;48.792;9.202;2022-09-25T11:58:54;17.80;99.90
9760;DHT22;4919;48.792;9.202;2022-09-25T12:06:31;18.10;99.90
9760;DHT22;4919;48.792;9.202;2022-09-25T12:19:53;17.80;99.90
9760;DHT22;4919;48.792;9.202;2022-09-25T12:27:54;18.20;99.90
9760;DHT22;4919;48.792;9.202;2022-09-25T12:30:42;18.30;99.90
9760;DHT22;4919;48.792;9.202;2022-09-25T12:41:54;18.60;99.90
9760;DHT22;4919;48.792;9.202;2022-09-25T12:47:15;18.60;99.90
9760;DHT22;4919;48.792;9.202;2022-09-25T12:49:56;18.50;99.90
9760;DHT22;4919;48.792;9.202;2022-09-25T12:52:51;18.50;99.90
9760;DHT22;4919;48.792;9.202;2022-09-25T12:55:16;18.40;99.90
9760;DHT22;4919;48.792;9.202;2022-09-25T12:57:51;18.40;99.90
9760;DHT22;4919;48.792;9.202;2022-09-25T13:00:23;18.40;99.90
9760;DHT22;4919;48.792;9.202;2022-09-25T13:03:07;18.20;99.90
9760;DHT22;4919;48.792;9.202;2022-09-25T13:05:49;18.20;99.90
9760;DHT22;4919;48.792;9.202;2022-09-25T13:08:32;18.10;99.90
9760;DHT22;4919;48.792;9.202;2022-09-25T13:11:13;18.10;99.90
9760;DHT22;4919;48.792;9.202;2022-09-25T13:13:46;18.00;99.90
9760;DHT22;4919;48.792;9.202;2022-09-25T13:16:14;18.10;99.90
9760;DHT22;4919;48.792;9.202;2022-09-25T13:19:07;18.20;99.90
9760;DHT22;4919;48.792;9.202;2022-09-25T13:21:37;18.30;99.90
9760;DHT22;4919;48.792;9.202;2022-09-25T13:24:05;18.50;99.90
9760;DHT22;4919;48.792;9.202;2022-09-25T13:26:46;18.70;99.90
9760;DHT22;4919;48.792;9.202;2022-09-25T13:29:27;18.70;99.90
9760;DHT22;4919;48.792;9.202;2022-09-25T13:32:22;18.60;99.90
9760;DHT22;4919;48.792;9.202;2022-09-25T13:35:01;18.40;99.90
9760;DHT22;4919;48.792;9.202;2022-09-25T13:37:31;18.30;99.90
9760;DHT22;4919;48.792;9.202;2022-09-25T13:40:00;18.20;99.90
9760;DHT22;4919;48.792;9.202;2022-09-25T13:42:46;18.10;99.90
9760;DHT22;4919;48.792;9.202;2022-09-25T13:45:29;18.10;99.90
9760;DHT22;4919;48.792;9.202;2022-09-25T13:50:34;18.10;99.90
9760;DHT22;4919;48.792;9.202;2022-09-25T13:58:27;18.10;99.90
9760;DHT22;4919;48.792;9.202;2022-09-25T14:00:57;18.10;99.90
9760;DHT22;4919;48.792;9.202;2022-09-25T14:05:56;18.20;99.90
9760;DHT22;4919;48.792;9.202;2022-09-25T14:08:24;18.20;99.90
9760;DHT22;4919;48.792;9.202;2022-09-25T14:10:54;18.30;99.90
9760;DHT22;4919;48.792;9.202;2022-09-25T14:13:24;18.30;99.90
9760;DHT22;4919;48.792;9.202;2022-09-25T14:15:55;18.30;99.90
9760;DHT22;4919;48.792;9.202;2022-09-25T14:18:36;18.40;99.90
9760;DHT22;4919;48.792;9.202;2022-09-25T14:21:04;18.40;99.90
9760;DHT22;4919;48.792;9.202;2022-09-25T14:23:47;18.30;99.90
9760;DHT22;4919;48.792;9.202;2022-09-25T14:26:24;18.30;99.90
9760;DHT22;4919;48.792;9.202;2022-09-25T14:28:54;18.30;99.90
9760;DHT22;4919;48.792;9.202;2022-09-25T14:47:55;17.70;99.90
9760;DHT22;4919;48.792;9.202;2022-09-25T14:50:26;17.70;99.90
9760;DHT22;4919;48.792;9.202;2022-09-25T14:52:57;17.50;99.90
9760;DHT22;4919;48.792;9.202;2022-09-25T14:55:33;17.50;99.90
9760;DHT22;4919;48.792;9.202;2022-09-25T14:58:01;17.50;99.90
9760;DHT22;4919;48.792;9.202;2022-09-25T15:00:30;17.40;99.90
9760;DHT22;4919;48.792;9.202;2022-09-25T15:02:57;17.30;99.90
9760;DHT22;4919;48.792;9.202;2022-09-25T15:05:28;17.30;99.90
9760;DHT22;4919;48.792;9.202;2022-09-25T15:07:57;17.30;99.90
9760;DHT22;4919;48.792;9.202;2022-09-25T15:10:35;17.40;99.90
9760;DHT22;4919;48.792;9.202;2022-09-25T15:13:18;17.40;99.90
9760;DHT22;4919;48.792;9.202;2022-09-25T15:15:53;17.30;99.90
9760;DHT22;4919;48.792;9.202;2022-09-25T15:18:41;17.40;99.90
9760;DHT22;4919;48.792;9.202;2022-09-25T15:21:30;17.40;99.90
9760;DHT22;4919;48.792;9.202;2022-09-25T15:24:04;17.80;99.90
9760;DHT22;4919;48.792;9.202;2022-09-25T15:26:33;17.80;99.90
9760;DHT22;4919;48.792;9.202;2022-09-25T15:29:14;17.90;99.90
9760;DHT22;4919;48.792;9.202;2022-09-25T15:31:44;17.90;99.90
9760;DHT22;4919;48.792;9.202;2022-09-25T15:34:27;17.80;99.90
9760;DHT22;4919;48.792;9.202;2022-09-25T15:37:20;17.60;99.90
9760;DHT22;4919;48.792;9.202;2022-09-25T15:39:52;17.60;99.90
9760;DHT22;4919;48.792;9.202;2022-09-25T15:42:19;17.40;99.90
9760;DHT22;4919;48.792;9.202;2022-09-25T15:44:47;17.40;99.90
9760;DHT22;4919;48.792;9.202;2022-09-25T15:47:48;17.30;99.90
9760;DHT22;4919;48.792;9.202;2022-09-25T15:50:26;17.20;99.90
9760;DHT22;4919;48.792;9.202;2022-09-25T15:52:56;17.10;99.90
9760;DHT22;4919;48.792;9.202;2022-09-25T15:55:24;17.10;99.90
9760;DHT22;4919;48.792;9.202;2022-09-25T15:57:52;17.00;99.90
9760;DHT22;4919;48.792;9.202;2022-09-25T16:00:22;17.00;99.90
9760;DHT22;4919;48.792;9.202;2022-09-25T16:05:57;17.00;99.90
9760;DHT22;4919;48.792;9.202;2022-09-25T16:08:34;16.90;99.90
9760;DHT22;4919;48.792;9.202;2022-09-25T16:11:20;16.90;99.90
9760;DHT22;4919;48.792;9.202;2022-09-25T16:13:49;16.80;99.90
9760;DHT22;4919;48.792;9.202;2022-09-25T16:18:46;16.70;99.90
9760;DHT22;4919;48.792;9.202;2022-09-25T16:23:58;16.70;99.90
9760;DHT22;4919;48.792;9.202;2022-09-25T16:26:40;16.70;99.90
9760;DHT22;4919;48.792;9.202;2022-09-25T16:31:38;16.60;99.90
9760;DHT22;4919;48.792;9.202;2022-09-25T16:34:15;16.60;99.90
9760;DHT22;4919;48.792;9.202;2022-09-25T16:36:44;16.60;99.90
9760;DHT22;4919;48.792;9.202;2022-09-25T16:41:47;16.40;99.90
9760;DHT22;4919;48.792;9.202;2022-09-25T16:49:23;16.30;99.90
9760;DHT22;4919;48.792;9.202;2022-09-25T16:51:52;16.20;99.90
9760;DHT22;4919;48.792;9.202;2022-09-25T16:54:20;16.20;99.90
9760;DHT22;4919;48.792;9.202;2022-09-25T16:56:53;16.10;99.90
9760;DHT22;4919;48.792;9.202;2022-09-25T16:59:23;16.10;99.90
9760;DHT22;4919;48.792;9.202;2022-09-25T17:01:53;16.10;99.90
9760;DHT22;4919;48.792;9.202;2022-09-25T17:04:24;16.10;99.90
9760;DHT22;4919;48.792;9.202;2022-09-25T17:06:52;16.00;99.90
9760;DHT22;4919;48.792;9.202;2022-09-25T17:09:21;16.00;99.90
9760;DHT22;4919;48.792;9.202;2022-09-25T17:11:48;16.00;99.90
9760;DHT22;4919;48.792;9.202;2022-09-25T17:14:23;15.90;99.90
9760;DHT22;4919;48.792;9.202;2022-09-25T17:16:52;15.90;99.90
9760;DHT22;4919;48.792;9.202;2022-09-25T17:19:19;15.90;99.90
9760;DHT22;4919;48.792;9.202;2022-09-25T17:21:48;15.80;99.90
9760;DHT22;4919;48.792;9.202;2022-09-25T17:24:18;15.80;99.90
9760;DHT22;4919;48.792;9.202;2022-09-25T17:26:46;15.70;99.90
9760;DHT22;4919;48.792;9.202;2022-09-25T17:29:13;15.80;99.90
9760;DHT22;4919;48.792;9.202;2022-09-25T17:31:40;15.70;99.90
9760;DHT22;4919;48.792;9.202;2022-09-25T17:34:16;15.70;99.90
9760;DHT22;4919;48.792;9.202;2022-09-25T17:36:44;15.60;99.90
9760;DHT22;4919;48.792;9.202;2022-09-25T17:39:11;15.60;99.90
9760;DHT22;4919;48.792;9.202;2022-09-25T17:41:39;15.60;99.90
9760;DHT22;4919;48.792;9.202;2022-09-25T17:44:09;15.60;99.90
9760;DHT22;4919;48.792;9.202;2022-09-25T17:46:37;15.60;99.90
9760;DHT22;4919;48.792;9.202;2022-09-25T17:49:04;15.50;99.90
9760;DHT22;4919;48.792;9.202;2022-09-25T17:51:31;15.50;99.90
9760;DHT22;4919;48.792;9.202;2022-09-25T17:53:59;15.40;99.90
9760;DHT22;4919;48.792;9.202;2022-09-25T17:56:28;15.30;99.90
9760;DHT22;4919;48.792;9.202;2022-09-25T17:59:00;15.30;99.90
9760;DHT22;4919;48.792;9.202;2022-09-25T18:01:29;15.20;99.90
9760;DHT22;4919;48.792;9.202;2022-09-25T18:04:14;15.10;99.90
9760;DHT22;4919;48.792;9.202;2022-09-25T18:06:42;15.10;99.90
9760;DHT22;4919;48.792;9.202;2022-09-25T18:09:09;15.10;99.90
9760;DHT22;4919;48.792;9.202;2022-09-25T18:11:36;14.90;99.90
9760;DHT22;4919;48.792;9.202;2022-09-25T18:14:02;15.00;99.90
9760;DHT22;4919;48.792;9.202;2022-09-25T18:16:30;14.90;99.90
9760;DHT22;4919;48.792;9.202;2022-09-25T18:18:58;14.90;99.90
9760;DHT22;4919;48.792;9.202;2022-09-25T18:21:43;14.90;99.90
9760;DHT22;4919;48.792;9.202;2022-09-25T18:24:29;14.90;99.90
9760;DHT22;4919;48.792;9.202;2022-09-25T18:26:56;14.90;99.90
9760;DHT22;4919;48.792;9.202;2022-09-25T18:29:23;14.90;99.90
9760;DHT22;4919;48.792;9.202;2022-09-25T18:31:50;14.90;99.90
9760;DHT22;4919;48.792;9.202;2022-09-25T18:34:17;14.90;99.90
9760;DHT22;4919;48.792;9.202;2022-09-25T18:36:47;14.80;99.90
9760;DHT22;4919;48.792;9.202;2022-09-25T18:39:15;14.80;99.90
9760;DHT22;4919;48.792;9.202;2022-09-25T18:41:46;14.80;99.90
9760;DHT22;4919;48.792;9.202;2022-09-25T18:44:13;14.80;99.90
9760;DHT22;4919;48.792;9.202;2022-09-25T18:46:43;14.80;99.90
9760;DHT22;4919;48.792;9.202;2022-09-25T18:49:10;14.70;99.90
9760;DHT22;4919;48.792;9.202;2022-09-25T18:51:36;14.80;99.90
9760;DHT22;4919;48.792;9.202;2022-09-25T18:54:03;14.70;99.90
9760;DHT22;4919;48.792;9.202;2022-09-25T18:56:30;14.70;99.90
9760;DHT22;4919;48.792;9.202;2022-09-25T18:59:02;14.70;99.90